Time,TemperatureF,DewpointF,PressureIn,WindDirection,WindDirectionDegrees,WindSpeedMPH,WindSpeedGustMPH,Humidity,HourlyPrecipIn,Conditions,Clouds,dailyrainin,SoftwareType,DateUTC
2013-01-13 00:03:00,55.2,53.8,30.03,SSW,200,6.0,9.0,95,0.00,,,0.00,Wunderground v.1.15,2013-01-13 05:03:00,
2013-01-13 00:06:00,55.1,53.7,30.03,SE,141,7.0,9.0,95,0.00,,,0.00,Wunderground v.1.15,2013-01-13 05:06:00,
2013-01-13 00:08:00,55.1,53.7,30.02,SSE,167,7.0,9.0,95,0.00,,,0.00,Wunderground v.1.15,2013-01-13 05:08:00,
2013-01-13 00:14:00,54.7,53.3,30.02,South,183,7.0,9.0,95,0.00,,,0.00,Wunderground v.1.15,2013-01-13 05:14:00,
2013-01-13 00:20:00,54.5,53.4,30.02,WSW,242,7.0,9.0,96,0.00,,,0.00,Wunderground v.1.15,2013-01-13 05:20:00,
2013-01-13 00:26:00,54.6,53.5,30.02,South,191,8.0,11.0,96,0.00,,,0.00,Wunderground v.1.15,2013-01-13 05:26:00,
2013-01-13 00:32:00,54.4,53.3,30.02,South,172,7.0,9.0,96,0.00,,,0.00,Wunderground v.1.15,2013-01-13 05:32:00,
2013-01-13 00:38:00,54.4,53.6,30.02,SE,132,8.0,10.0,97,0.00,,,0.00,Wunderground v.1.15,2013-01-13 05:38:00,
2013-01-13 00:44:00,54.4,53.6,30.02,South,179,8.0,11.0,97,0.00,,,0.00,Wunderground v.1.15,2013-01-13 05:44:00,
2013-01-13 00:50:00,54.2,53.1,30.01,SSW,200,8.0,11.0,96,0.00,,,0.00,Wunderground v.1.15,2013-01-13 05:50:00,
2013-01-13 00:56:00,53.8,53.0,30.02,SE,124,8.0,11.0,97,0.00,,,0.00,Wunderground v.1.15,2013-01-13 05:56:00,
2013-01-13 01:02:00,54.2,53.6,30.02,South,170,8.0,9.0,98,0.00,,,0.00,Wunderground v.1.15,2013-01-13 06:02:00,
2013-01-13 01:08:00,54.5,53.9,30.01,SSW,198,9.0,12.0,98,0.00,,,0.00,Wunderground v.1.15,2013-01-13 06:08:00,
2013-01-13 01:14:00,54.6,54.0,30.02,SSW,210,9.0,15.0,98,0.00,,,0.00,Wunderground v.1.15,2013-01-13 06:14:00,
2013-01-13 01:20:00,54.6,54.0,30.01,South,186,9.0,12.0,98,0.00,,,0.00,Wunderground v.1.15,2013-01-13 06:20:00,
2013-01-13 01:26:00,54.4,53.8,30.01,SSE,165,10.0,14.0,98,0.00,,,0.00,Wunderground v.1.15,2013-01-13 06:26:00,
2013-01-13 01:32:00,54.3,54.0,30.01,SSW,210,9.0,11.0,99,0.00,,,0.00,Wunderground v.1.15,2013-01-13 06:32:00,
2013-01-13 01:38:00,54.3,54.0,30.02,SSW,205,9.0,11.0,99,0.00,,,0.00,Wunderground v.1.15,2013-01-13 06:38:00,
2013-01-13 01:44:00,54.6,54.6,30.01,SE,132,10.0,11.0,100,0.00,,,0.00,Wunderground v.1.15,2013-01-13 06:44:00,
2013-01-13 01:50:00,54.6,54.3,30.01,SE,143,11.0,11.0,99,0.00,,,0.00,Wunderground v.1.15,2013-01-13 06:50:00,
2013-01-13 01:56:00,54.7,54.7,30.01,WSW,248,10.0,13.0,100,0.00,,,0.00,Wunderground v.1.15,2013-01-13 06:56:00,
2013-01-13 02:02:00,54.5,54.5,30.01,SSE,156,9.0,9.0,100,0.00,,,0.00,Wunderground v.1.15,2013-01-13 07:02:00,
2013-01-13 02:08:00,54.3,54.3,30.01,SE,135,9.0,10.0,100,0.00,,,0.00,Wunderground v.1.15,2013-01-13 07:08:00,
2013-01-13 02:14:00,53.9,53.6,30.01,South,180,9.0,10.0,99,0.00,,,0.00,Wunderground v.1.15,2013-01-13 07:14:00,
2013-01-13 02:20:00,53.6,53.3,30.01,SSE,148,10.0,11.0,99,0.00,,,0.00,Wunderground v.1.15,2013-01-13 07:20:00,
2013-01-13 02:26:00,53.2,52.9,30.01,SSE,147,11.0,13.0,99,0.00,,,0.00,Wunderground v.1.15,2013-01-13 07:26:00,
2013-01-13 02:32:00,52.8,52.5,30.01,SSW,198,10.0,12.0,99,0.00,,,0.00,Wunderground v.1.15,2013-01-13 07:32:00,
2013-01-13 02:38:00,52.8,52.8,30.01,South,169,9.0,12.0,100,0.00,,,0.00,Wunderground v.1.15,2013-01-13 07:38:00,
2013-01-13 02:44:00,52.8,52.8,30.01,SSW,197,8.0,10.0,100,0.00,,,0.00,Wunderground v.1.15,2013-01-13 07:44:00,
2013-01-13 02:50:00,53.0,53.0,30.00,SSE,147,9.0,9.0,100,0.00,,,0.00,Wunderground v.1.15,2013-01-13 07:50:00,
2013-01-13 02:56:00,52.8,52.8,30.00,SW,218,8.0,11.0,100,0.00,,,0.00,Wunderground v.1.15,2013-01-13 07:56:00,
2013-01-13 03:02:00,53.0,53.0,30.00,SW,217,7.0,10.0,100,0.00,,,0.00,Wunderground v.1.15,2013-01-13 08:02:00,
2013-01-13 03:08:00,52.9,52.9,30.00,SE,145,7.0,10.0,100,0.00,,,0.00,Wunderground v.1.15,2013-01-13 08:08:00,
2013-01-13 03:14:00,53.1,53.1,29.99,SSW,193,9.0,9.0,100,0.00,,,0.00,Wunderground v.1.15,2013-01-13 08:14:00,
2013-01-13 03:20:00,53.0,53.0,29.99,South,181,9.0,9.0,100,0.00,,,0.00,Wunderground v.1.15,2013-01-13 08:20:00,
2013-01-13 03:26:00,53.2,53.2,29.99,SSE,150,8.0,12.0,100,0.00,,,0.00,Wunderground v.1.15,2013-01-13 08:26:00,
2013-01-13 03:32:00,53.4,53.4,29.98,SW,222,9.0,15.0,100,0.00,,,0.00,Wunderground v.1.15,2013-01-13 08:32:00,
2013-01-13 03:38:00,53.3,53.3,29.99,WSW,240,8.0,15.0,100,0.00,,,0.00,Wunderground v.1.15,2013-01-13 08:38:00,
2013-01-13 03:44:00,53.3,53.3,29.98,SE,145,7.0,9.0,100,0.00,,,0.00,Wunderground v.1.15,2013-01-13 08:44:00,
2013-01-13 03:50:00,53.2,53.2,29.98,SW,232,7.0,7.0,100,0.00,,,0.00,Wunderground v.1.15,2013-01-13 08:50:00,
2013-01-13 03:56:00,53.0,53.0,29.98,SSW,200,7.0,9.0,100,0.00,,,0.00,Wunderground v.1.15,2013-01-13 08:56:00,
2013-01-13 04:02:00,52.9,52.9,29.98,SSW,201,6.0,9.0,100,0.00,,,0.00,Wunderground v.1.15,2013-01-13 09:02:00,
2013-01-13 04:08:00,52.8,52.8,29.98,SSE,163,6.0,10.0,100,0.00,,,0.00,Wunderground v.1.15,2013-01-13 09:08:00,
2013-01-13 04:14:00,52.6,52.6,29.97,SSW,200,6.0,9.0,100,0.00,,,0.00,Wunderground v.1.15,2013-01-13 09:14:00,
2013-01-13 04:20:00,52.4,52.4,29.97,SSW,208,7.0,9.0,100,0.00,,,0.00,Wunderground v.1.15,2013-01-13 09:20:00,
2013-01-13 04:26:00,52.2,52.2,29.97,SSW,201,6.0,9.0,100,0.00,,,0.00,Wunderground v.1.15,2013-01-13 09:26:00,
2013-01-13 04:32:00,52.1,52.1,29.96,SSW,195,7.0,8.0,100,0.00,,,0.00,Wunderground v.1.15,2013-01-13 09:32:00,
2013-01-13 04:38:00,52.0,52.0,29.97,SW,230,7.0,13.0,100,0.00,,,0.00,Wunderground v.1.15,2013-01-13 09:38:00,
2013-01-13 04:44:00,52.0,52.0,29.97,WSW,239,7.0,9.0,100,0.00,,,0.00,Wunderground v.1.15,2013-01-13 09:44:00,
2013-01-13 04:50:00,51.8,51.8,29.97,WNW,284,6.0,9.0,100,0.00,,,0.00,Wunderground v.1.15,2013-01-13 09:50:00,
2013-01-13 04:56:00,51.7,51.7,29.96,SSW,211,6.0,9.0,100,0.00,,,0.00,Wunderground v.1.15,2013-01-13 09:56:00,
2013-01-13 05:02:00,51.9,51.9,29.96,SE,141,6.0,14.0,100,0.00,,,0.00,Wunderground v.1.15,2013-01-13 10:02:00,
2013-01-13 05:08:00,52.1,52.1,29.96,SSE,151,7.0,14.0,100,0.00,,,0.00,Wunderground v.1.15,2013-01-13 10:08:00,
2013-01-13 05:14:00,52.0,52.0,29.96,South,180,6.0,9.0,100,0.00,,,0.00,Wunderground v.1.15,2013-01-13 10:14:00,
2013-01-13 05:20:00,51.9,51.9,29.96,SSE,152,7.0,9.0,100,0.00,,,0.00,Wunderground v.1.15,2013-01-13 10:20:00,
2013-01-13 05:26:00,52.0,52.0,29.96,SW,224,7.0,9.0,100,0.00,,,0.00,Wunderground v.1.15,2013-01-13 10:26:00,
2013-01-13 05:32:00,52.0,52.0,29.96,SE,131,7.0,9.0,100,0.00,,,0.00,Wunderground v.1.15,2013-01-13 10:32:00,
2013-01-13 05:38:00,52.0,52.0,29.96,SSE,147,6.0,11.0,100,0.00,,,0.00,Wunderground v.1.15,2013-01-13 10:38:00,
2013-01-13 05:44:00,52.0,52.0,29.96,SSW,196,6.0,9.0,100,0.00,,,0.00,Wunderground v.1.15,2013-01-13 10:44:00,
2013-01-13 05:50:00,52.0,52.0,29.95,SSE,160,7.0,7.0,100,0.00,,,0.00,Wunderground v.1.15,2013-01-13 10:50:00,
2013-01-13 05:56:00,51.5,51.5,29.95,South,172,8.0,9.0,100,0.00,,,0.00,Wunderground v.1.15,2013-01-13 10:56:00,
2013-01-13 06:02:00,51.3,51.3,29.96,South,181,8.0,9.0,100,0.00,,,0.00,Wunderground v.1.15,2013-01-13 11:02:00,
2013-01-13 06:08:00,51.1,51.1,29.96,SE,128,8.0,10.0,100,0.00,,,0.00,Wunderground v.1.15,2013-01-13 11:08:00,
2013-01-13 06:14:00,51.1,51.1,29.96,South,181,8.0,13.0,100,0.00,,,0.00,Wunderground v.1.15,2013-01-13 11:14:00,
2013-01-13 06:20:00,51.1,51.1,29.96,South,171,8.0,9.0,100,0.00,,,0.00,Wunderground v.1.15,2013-01-13 11:20:00,
2013-01-13 06:26:00,51.1,51.1,29.96,SW,226,8.0,11.0,100,0.00,,,0.00,Wunderground v.1.15,2013-01-13 11:26:00,
2013-01-13 06:32:00,51.2,51.2,29.96,SSE,162,8.0,9.0,100,0.00,,,0.00,Wunderground v.1.15,2013-01-13 11:32:00,
2013-01-13 06:38:00,51.4,51.4,29.96,SSE,159,8.0,12.0,100,0.00,,,0.00,Wunderground v.1.15,2013-01-13 11:38:00,
2013-01-13 06:44:00,51.6,51.6,29.97,SSW,205,7.0,9.0,100,0.00,,,0.00,Wunderground v.1.15,2013-01-13 11:44:00,
2013-01-13 06:50:00,51.8,51.8,29.96,SSE,167,7.0,10.0,100,0.00,,,0.00,Wunderground v.1.15,2013-01-13 11:50:00,
2013-01-13 06:56:00,51.9,51.9,29.97,SSE,153,7.0,10.0,100,0.00,,,0.00,Wunderground v.1.15,2013-01-13 11:56:00,
2013-01-13 07:02:00,52.2,52.2,29.97,SE,146,7.0,9.0,100,0.00,,,0.00,Wunderground v.1.15,2013-01-13 12:02:00,
2013-01-13 07:08:00,52.7,52.7,29.97,SSW,204,8.0,9.0,100,0.00,,,0.00,Wunderground v.1.15,2013-01-13 12:08:00,
2013-01-13 07:14:00,52.7,52.7,29.97,WSW,244,8.0,12.0,100,0.00,,,0.00,Wunderground v.1.15,2013-01-13 12:14:00,
2013-01-13 07:20:00,52.7,52.7,29.97,South,173,8.0,8.0,100,0.00,,,0.00,Wunderground v.1.15,2013-01-13 12:20:00,
2013-01-13 07:26:00,52.6,52.6,29.96,SSE,149,9.0,13.0,100,0.00,,,0.00,Wunderground v.1.15,2013-01-13 12:26:00,
2013-01-13 07:32:00,52.6,52.6,29.97,South,179,11.0,11.0,100,0.00,,,0.00,Wunderground v.1.15,2013-01-13 12:32:00,
2013-01-13 07:38:00,52.5,52.5,29.97,SSW,210,10.0,11.0,100,0.00,,,0.00,Wunderground v.1.15,2013-01-13 12:38:00,
2013-01-13 07:45:00,52.3,52.3,29.97,SW,222,8.0,9.0,100,0.00,,,0.00,Wunderground v.1.15,2013-01-13 12:45:00,
2013-01-13 07:50:00,52.2,52.2,29.97,SW,220,7.0,7.0,100,0.00,,,0.00,Wunderground v.1.15,2013-01-13 12:50:00,
2013-01-13 07:56:00,52.2,52.2,29.98,South,190,7.0,13.0,100,0.00,,,0.00,Wunderground v.1.15,2013-01-13 12:56:00,
2013-01-13 08:03:00,52.5,52.5,29.98,South,188,8.0,9.0,100,0.00,,,0.00,Wunderground v.1.15,2013-01-13 13:03:00,
2013-01-13 08:08:00,52.9,52.9,29.98,WSW,245,7.0,9.0,100,0.00,,,0.00,Wunderground v.1.15,2013-01-13 13:08:00,
2013-01-13 08:14:00,53.1,53.1,29.98,SSW,195,8.0,10.0,100,0.00,,,0.00,Wunderground v.1.15,2013-01-13 13:14:00,
2013-01-13 08:20:00,53.2,53.2,29.97,SW,228,8.0,8.0,100,0.00,,,0.00,Wunderground v.1.15,2013-01-13 13:20:00,
2013-01-13 08:26:00,53.2,53.2,29.97,West,270,7.0,11.0,100,0.00,,,0.00,Wunderground v.1.15,2013-01-13 13:26:00,
2013-01-13 08:32:00,53.2,53.2,29.97,SW,225,7.0,12.0,100,0.00,,,0.00,Wunderground v.1.15,2013-01-13 13:32:00,
2013-01-13 08:38:00,53.2,53.2,29.98,SSE,154,6.0,12.0,100,0.00,,,0.00,Wunderground v.1.15,2013-01-13 13:38:00,
2013-01-13 08:44:00,53.1,53.1,29.98,SW,222,6.0,15.0,100,0.00,,,0.00,Wunderground v.1.15,2013-01-13 13:44:00,
2013-01-13 08:50:00,53.0,53.0,29.98,SSE,164,6.0,6.0,100,0.00,,,0.00,Wunderground v.1.15,2013-01-13 13:50:00,
2013-01-13 08:56:00,53.5,52.9,29.98,SSW,201,7.0,9.0,98,0.00,,,0.00,Wunderground v.1.15,2013-01-13 13:56:00,
2013-01-13 09:02:00,54.2,52.8,29.98,SSE,168,8.0,8.0,95,0.00,,,0.00,Wunderground v.1.15,2013-01-13 14:02:00,
2013-01-13 09:08:00,54.4,52.1,29.98,SSE,149,8.0,9.0,92,0.00,,,0.00,Wunderground v.1.15,2013-01-13 14:08:00,
2013-01-13 09:14:00,54.5,51.9,29.98,SSW,210,8.0,9.0,91,0.00,,,0.00,Wunderground v.1.15,2013-01-13 14:14:00,
2013-01-13 09:20:00,54.3,51.7,29.99,WSW,249,8.0,8.0,91,0.00,,,0.00,Wunderground v.1.15,2013-01-13 14:20:00,
2013-01-13 09:26:00,54.0,51.7,29.99,West,259,6.0,9.0,92,0.00,,,0.00,Wunderground v.1.15,2013-01-13 14:26:00,
2013-01-13 09:32:00,54.1,51.5,30.00,SW,225,5.0,12.0,91,0.00,,,0.00,Wunderground v.1.15,2013-01-13 14:32:00,
2013-01-13 09:38:00,54.5,51.6,30.00,WSW,255,6.0,12.0,90,0.00,,,0.00,Wunderground v.1.15,2013-01-13 14:38:00,
2013-01-13 09:44:00,54.6,51.4,30.01,West,277,6.0,9.0,89,0.00,,,0.00,Wunderground v.1.15,2013-01-13 14:44:00,
2013-01-13 09:50:00,54.9,51.7,30.01,WSW,257,4.0,9.0,89,0.00,,,0.00,Wunderground v.1.15,2013-01-13 14:50:00,
2013-01-13 09:56:00,55.2,51.4,30.01,SE,129,5.0,9.0,87,0.00,,,0.00,Wunderground v.1.15,2013-01-13 14:56:00,
2013-01-13 10:02:00,55.5,51.7,30.00,SW,235,7.0,17.0,87,0.00,,,0.00,Wunderground v.1.15,2013-01-13 15:02:00,
2013-01-13 10:08:00,55.5,52.0,30.00,WSW,252,8.0,17.0,88,0.00,,,0.00,Wunderground v.1.15,2013-01-13 15:08:00,
2013-01-13 10:14:00,55.5,52.0,30.00,SSW,201,8.0,14.0,88,0.00,,,0.00,Wunderground v.1.15,2013-01-13 15:14:00,
2013-01-13 10:20:00,55.7,52.2,30.00,West,263,8.0,8.0,88,0.00,,,0.00,Wunderground v.1.15,2013-01-13 15:20:00,
2013-01-13 10:26:00,55.9,52.4,30.00,WSW,242,9.0,11.0,88,0.00,,,0.00,Wunderground v.1.15,2013-01-13 15:26:00,
2013-01-13 10:32:00,56.1,52.3,29.99,West,274,9.0,10.0,87,0.00,,,0.00,Wunderground v.1.15,2013-01-13 15:32:00,
2013-01-13 10:38:00,56.3,52.5,29.99,WSW,240,12.0,20.0,87,0.00,,,0.00,Wunderground v.1.15,2013-01-13 15:38:00,
2013-01-13 10:45:00,56.6,52.8,29.99,WSW,257,11.0,21.0,87,0.00,,,0.00,Wunderground v.1.15,2013-01-13 15:45:00,
2013-01-13 10:50:00,56.7,52.6,29.99,SSW,195,10.0,10.0,86,0.00,,,0.00,Wunderground v.1.15,2013-01-13 15:50:00,
2013-01-13 10:57:00,56.8,52.3,29.99,WSW,240,10.0,13.0,85,0.00,,,0.00,Wunderground v.1.15,2013-01-13 15:57:00,
2013-01-13 11:03:00,56.8,52.7,29.98,WSW,240,10.0,10.0,86,0.00,,,0.00,Wunderground v.1.15,2013-01-13 16:03:00,
2013-01-13 11:08:00,57.4,52.6,29.98,WSW,252,8.0,10.0,84,0.00,,,0.00,Wunderground v.1.15,2013-01-13 16:08:00,
2013-01-13 11:14:00,57.8,52.0,29.98,West,259,8.0,14.0,81,0.00,,,0.00,Wunderground v.1.15,2013-01-13 16:14:00,
2013-01-13 11:20:00,58.0,51.5,29.98,WSW,245,9.0,13.0,79,0.00,,,0.00,Wunderground v.1.15,2013-01-13 16:20:00,
2013-01-13 11:26:00,58.2,51.4,29.98,West,264,10.0,15.0,78,0.00,,,0.00,Wunderground v.1.15,2013-01-13 16:26:00,
2013-01-13 11:32:00,58.0,51.5,29.97,West,269,8.0,9.0,79,0.00,,,0.00,Wunderground v.1.15,2013-01-13 16:32:00,
2013-01-13 11:38:00,58.0,51.9,29.97,West,281,7.0,12.0,80,0.00,,,0.00,Wunderground v.1.15,2013-01-13 16:38:00,
2013-01-13 11:44:00,58.2,51.4,29.97,WSW,246,7.0,13.0,78,0.00,,,0.00,Wunderground v.1.15,2013-01-13 16:44:00,
2013-01-13 11:50:00,58.7,51.2,29.97,WSW,253,7.0,7.0,76,0.00,,,0.00,Wunderground v.1.15,2013-01-13 16:50:00,
2013-01-13 11:56:00,59.1,51.5,29.96,WSW,240,7.0,9.0,76,0.00,,,0.00,Wunderground v.1.15,2013-01-13 16:56:00,
2013-01-13 12:02:00,59.5,51.2,29.96,WNW,299,7.0,7.0,74,0.00,,,0.00,Wunderground v.1.15,2013-01-13 17:02:00,
2013-01-13 12:08:00,59.8,51.5,29.95,WNW,285,8.0,16.0,74,0.00,,,0.00,Wunderground v.1.15,2013-01-13 17:08:00,
2013-01-13 12:14:00,59.7,51.0,29.95,WSW,243,9.0,11.0,73,0.00,,,0.00,Wunderground v.1.15,2013-01-13 17:14:00,
2013-01-13 12:20:00,59.2,51.3,29.95,WNW,296,9.0,9.0,75,0.00,,,0.00,Wunderground v.1.15,2013-01-13 17:20:00,
2013-01-13 12:26:00,59.3,50.6,29.95,West,274,9.0,10.0,73,0.00,,,0.00,Wunderground v.1.15,2013-01-13 17:26:00,
2013-01-13 12:32:00,59.3,50.6,29.95,WNW,299,9.0,10.0,73,0.00,,,0.00,Wunderground v.1.15,2013-01-13 17:32:00,
2013-01-13 12:38:00,59.4,51.1,29.95,WSW,242,9.0,11.0,74,0.00,,,0.00,Wunderground v.1.15,2013-01-13 17:38:00,
2013-01-13 12:44:00,59.4,51.1,29.95,WSW,246,8.0,12.0,74,0.00,,,0.00,Wunderground v.1.15,2013-01-13 17:44:00,
2013-01-13 12:50:00,59.4,50.7,29.95,West,278,8.0,9.0,73,0.00,,,0.00,Wunderground v.1.15,2013-01-13 17:50:00,
2013-01-13 12:56:00,59.7,51.0,29.94,West,266,8.0,10.0,73,0.00,,,0.00,Wunderground v.1.15,2013-01-13 17:56:00,
2013-01-13 13:02:00,59.5,50.8,29.95,ENE,68,7.0,8.0,73,0.00,,,0.00,Wunderground v.1.15,2013-01-13 18:02:00,
2013-01-13 13:08:00,59.4,51.1,29.94,SSW,204,7.0,9.0,74,0.00,,,0.00,Wunderground v.1.15,2013-01-13 18:08:00,
2013-01-13 13:14:00,59.6,51.3,29.94,SW,236,8.0,10.0,74,0.00,,,0.00,Wunderground v.1.15,2013-01-13 18:14:00,
2013-01-13 13:20:00,59.5,50.8,29.94,NW,317,9.0,9.0,73,0.00,,,0.00,Wunderground v.1.15,2013-01-13 18:20:00,
2013-01-13 13:26:00,59.6,50.6,29.94,West,259,7.0,13.0,72,0.00,,,0.00,Wunderground v.1.15,2013-01-13 18:26:00,
2013-01-13 13:32:00,59.5,50.8,29.94,West,264,6.0,9.0,73,0.00,,,0.00,Wunderground v.1.15,2013-01-13 18:32:00,
2013-01-13 13:38:00,59.5,50.8,29.94,East,89,6.0,9.0,73,0.00,,,0.00,Wunderground v.1.15,2013-01-13 18:38:00,
2013-01-13 13:44:00,59.5,50.8,29.93,SW,235,6.0,15.0,73,0.00,,,0.00,Wunderground v.1.15,2013-01-13 18:44:00,
2013-01-13 13:50:00,59.5,50.8,29.93,SW,233,6.0,6.0,73,0.00,,,0.00,Wunderground v.1.15,2013-01-13 18:50:00,
2013-01-13 13:56:00,59.6,50.6,29.94,West,270,5.0,9.0,72,0.00,,,0.00,Wunderground v.1.15,2013-01-13 18:56:00,
2013-01-13 14:06:00,59.5,50.5,29.94,WSW,257,7.0,14.0,72,0.00,,,0.00,Wunderground v.1.15,2013-01-13 19:06:00,
2013-01-13 14:12:00,59.4,50.7,29.94,SSW,207,6.0,9.0,73,0.00,,,0.00,Wunderground v.1.15,2013-01-13 19:12:00,
2013-01-13 14:18:00,59.4,50.7,29.94,West,259,6.0,9.0,73,0.00,,,0.00,Wunderground v.1.15,2013-01-13 19:18:00,
2013-01-13 14:26:00,59.5,50.8,29.94,SSW,198,5.0,9.0,73,0.00,,,0.00,Wunderground v.1.15,2013-01-13 19:26:00,
2013-01-13 14:34:00,59.4,50.7,29.94,West,262,5.0,9.0,73,0.00,,,0.00,Wunderground v.1.15,2013-01-13 19:34:00,
2013-01-13 14:40:00,59.4,50.4,29.94,SW,215,6.0,6.0,72,0.00,,,0.00,Wunderground v.1.15,2013-01-13 19:40:00,
2013-01-13 14:46:00,59.5,50.5,29.94,West,264,5.0,9.0,72,0.00,,,0.00,Wunderground v.1.15,2013-01-13 19:46:00,
2013-01-13 14:52:00,59.4,50.4,29.95,SSE,167,5.0,9.0,72,0.00,,,0.00,Wunderground v.1.15,2013-01-13 19:52:00,
2013-01-13 15:01:00,59.3,51.0,29.95,WSW,240,4.0,9.0,74,0.00,,,0.00,Wunderground v.1.15,2013-01-13 20:01:00,
2013-01-13 15:08:00,59.1,50.5,29.95,South,191,4.0,9.0,73,0.00,,,0.00,Wunderground v.1.15,2013-01-13 20:08:00,
2013-01-13 15:14:00,59.0,51.1,29.95,WSW,248,4.0,9.0,75,0.00,,,0.00,Wunderground v.1.15,2013-01-13 20:14:00,
2013-01-13 15:20:00,59.2,51.6,29.96,SE,146,3.0,9.0,76,0.00,,,0.00,Wunderground v.1.15,2013-01-13 20:20:00,
2013-01-13 15:26:00,58.7,52.2,29.96,SSW,208,3.0,9.0,79,0.00,,,0.00,Wunderground v.1.15,2013-01-13 20:26:00,
2013-01-13 15:33:00,58.6,52.1,29.96,South,183,3.0,9.0,79,0.00,,,0.00,Wunderground v.1.15,2013-01-13 20:33:00,
2013-01-13 15:38:00,58.0,52.2,29.95,South,183,3.0,9.0,81,0.00,,,0.00,Wunderground v.1.15,2013-01-13 20:38:00,
2013-01-13 15:44:00,57.0,52.2,29.95,SW,222,4.0,9.0,84,0.00,,,0.00,Wunderground v.1.15,2013-01-13 20:44:00,
2013-01-13 15:50:00,56.4,52.3,29.95,SSE,152,5.0,9.0,86,0.00,,,0.00,Wunderground v.1.15,2013-01-13 20:50:00,
2013-01-13 15:59:00,55.8,52.3,29.96,SW,222,6.0,10.0,88,0.00,,,0.00,Wunderground v.1.15,2013-01-13 20:59:00,
2013-01-13 16:05:00,55.7,52.5,29.96,South,176,6.0,9.0,89,0.00,,,0.00,Wunderground v.1.15,2013-01-13 21:05:00,
2013-01-13 16:10:00,55.4,52.5,29.96,South,173,6.0,9.0,90,0.00,,,0.00,Wunderground v.1.15,2013-01-13 21:10:00,
2013-01-13 16:18:00,55.0,52.7,29.97,SW,222,6.0,10.0,92,0.00,,,0.00,Wunderground v.1.15,2013-01-13 21:18:00,
2013-01-13 16:24:00,54.8,52.8,29.97,South,184,6.0,9.0,93,0.00,,,0.00,Wunderground v.1.15,2013-01-13 21:24:00,
2013-01-13 16:30:00,54.6,52.6,29.97,South,181,7.0,9.0,93,0.00,,,0.00,Wunderground v.1.15,2013-01-13 21:30:00,
2013-01-13 16:39:00,54.3,52.6,29.96,South,177,7.0,10.0,94,0.00,,,0.00,Wunderground v.1.15,2013-01-13 21:39:00,
2013-01-13 16:44:00,54.3,52.9,29.97,South,188,8.0,9.0,95,0.00,,,0.00,Wunderground v.1.15,2013-01-13 21:44:00,
2013-01-13 16:50:00,54.3,52.9,29.96,SSE,165,8.0,8.0,95,0.00,,,0.00,Wunderground v.1.15,2013-01-13 21:50:00,
2013-01-13 16:56:00,54.2,53.1,29.96,SSW,193,9.0,10.0,96,0.00,,,0.00,Wunderground v.1.15,2013-01-13 21:56:00,
2013-01-13 17:05:00,54.0,52.9,29.96,South,177,9.0,10.0,96,0.00,,,0.00,Wunderground v.1.15,2013-01-13 22:05:00,
2013-01-13 17:10:00,53.8,53.0,29.96,SSE,152,8.0,10.0,97,0.00,,,0.00,Wunderground v.1.15,2013-01-13 22:10:00,
2013-01-13 17:16:00,53.7,52.9,29.97,SSE,149,8.0,10.0,97,0.00,,,0.00,Wunderground v.1.15,2013-01-13 22:16:00,
2013-01-13 17:23:00,53.7,53.1,29.97,SSE,166,8.0,11.0,98,0.00,,,0.00,Wunderground v.1.15,2013-01-13 22:23:00,
2013-01-13 17:28:00,53.7,53.1,29.97,SSE,156,9.0,12.0,98,0.00,,,0.00,Wunderground v.1.15,2013-01-13 22:28:00,
2013-01-13 17:34:00,53.7,53.1,29.97,SE,128,10.0,10.0,98,0.00,,,0.00,Wunderground v.1.15,2013-01-13 22:34:00,
2013-01-13 17:40:00,53.8,53.2,29.97,South,169,9.0,11.0,98,0.00,,,0.00,Wunderground v.1.15,2013-01-13 22:40:00,
2013-01-13 17:46:00,53.9,53.3,29.97,SE,139,10.0,14.0,98,0.00,,,0.00,Wunderground v.1.15,2013-01-13 22:46:00,
2013-01-13 17:52:00,54.2,53.6,29.97,SE,146,11.0,12.0,98,0.00,,,0.00,Wunderground v.1.15,2013-01-13 22:52:00,
2013-01-13 17:58:00,54.4,54.1,29.96,South,176,12.0,18.0,99,0.00,,,0.00,Wunderground v.1.15,2013-01-13 22:58:00,
2013-01-13 18:04:00,54.5,54.2,29.97,South,186,11.0,14.0,99,0.00,,,0.00,Wunderground v.1.15,2013-01-13 23:04:00,
2013-01-13 18:10:00,54.5,54.2,29.96,SSE,162,10.0,10.0,99,0.00,,,0.00,Wunderground v.1.15,2013-01-13 23:10:00,
2013-01-13 18:17:00,54.6,54.3,29.96,SSE,155,11.0,11.0,99,0.00,,,0.00,Wunderground v.1.15,2013-01-13 23:17:00,
2013-01-13 18:22:00,54.6,54.3,29.96,South,187,10.0,11.0,99,0.00,,,0.00,Wunderground v.1.15,2013-01-13 23:22:00,
2013-01-13 18:28:00,54.6,54.3,29.96,SE,146,10.0,13.0,99,0.00,,,0.00,Wunderground v.1.15,2013-01-13 23:28:00,
2013-01-13 18:34:00,54.6,54.6,29.96,West,274,9.0,10.0,100,0.00,,,0.00,Wunderground v.1.15,2013-01-13 23:34:00,
2013-01-13 18:40:00,54.6,54.6,29.96,SSE,162,9.0,10.0,100,0.00,,,0.00,Wunderground v.1.15,2013-01-13 23:40:00,
2013-01-13 18:46:00,54.6,54.6,29.96,South,183,10.0,16.0,100,0.00,,,0.00,Wunderground v.1.15,2013-01-13 23:46:00,
2013-01-13 18:52:00,54.6,54.6,29.97,SSE,161,8.0,12.0,100,0.00,,,0.00,Wunderground v.1.15,2013-01-13 23:52:00,
2013-01-13 18:58:00,54.6,54.6,29.97,SSE,148,8.0,12.0,100,0.00,,,0.00,Wunderground v.1.15,2013-01-13 23:58:00,
2013-01-13 19:04:00,54.6,54.6,29.96,SSE,165,9.0,10.0,100,0.00,,,0.00,Wunderground v.1.15,2013-01-14 00:04:00,
2013-01-13 19:10:00,54.5,54.5,29.96,SSE,152,9.0,10.0,100,0.00,,,0.00,Wunderground v.1.15,2013-01-14 00:10:00,
2013-01-13 19:16:00,54.5,54.5,29.96,SE,142,10.0,16.0,100,0.00,,,0.00,Wunderground v.1.15,2013-01-14 00:16:00,
2013-01-13 19:22:00,54.5,54.5,29.96,South,169,10.0,11.0,100,0.00,,,0.00,Wunderground v.1.15,2013-01-14 00:22:00,
2013-01-13 19:28:00,54.4,54.4,29.96,SE,142,9.0,11.0,100,0.00,,,0.00,Wunderground v.1.15,2013-01-14 00:28:00,
2013-01-13 19:34:00,54.5,54.5,29.95,South,170,9.0,10.0,100,0.00,,,0.00,Wunderground v.1.15,2013-01-14 00:34:00,
2013-01-13 19:40:00,54.4,54.4,29.95,SE,136,9.0,9.0,100,0.00,,,0.00,Wunderground v.1.15,2013-01-14 00:40:00,
2013-01-13 19:46:00,54.4,54.4,29.94,SSE,147,10.0,11.0,100,0.00,,,0.00,Wunderground v.1.15,2013-01-14 00:46:00,
2013-01-13 19:52:00,54.4,54.4,29.95,South,172,9.0,12.0,100,0.00,,,0.00,Wunderground v.1.15,2013-01-14 00:52:00,
2013-01-13 19:58:00,54.4,54.4,29.94,SSE,149,9.0,14.0,100,0.00,,,0.00,Wunderground v.1.15,2013-01-14 00:58:00,
2013-01-13 20:04:00,54.4,54.4,29.94,SSE,152,11.0,11.0,100,0.00,,,0.00,Wunderground v.1.15,2013-01-14 01:04:00,
2013-01-13 20:10:00,54.4,54.4,29.94,SE,140,10.0,13.0,100,0.00,,,0.00,Wunderground v.1.15,2013-01-14 01:10:00,
2013-01-13 20:16:00,54.4,54.4,29.94,SSE,150,10.0,13.0,100,0.00,,,0.00,Wunderground v.1.15,2013-01-14 01:16:00,
2013-01-13 20:22:00,54.5,54.5,29.94,SSE,149,10.0,14.0,100,0.00,,,0.00,Wunderground v.1.15,2013-01-14 01:22:00,
2013-01-13 20:28:00,54.5,54.5,29.94,South,172,9.0,14.0,100,0.00,,,0.00,Wunderground v.1.15,2013-01-14 01:28:00,
2013-01-13 20:34:00,54.5,54.5,29.94,SSE,156,9.0,13.0,100,0.00,,,0.00,Wunderground v.1.15,2013-01-14 01:34:00,
2013-01-13 20:40:00,54.5,54.5,29.94,SSE,162,9.0,9.0,100,0.00,,,0.00,Wunderground v.1.15,2013-01-14 01:40:00,
2013-01-13 20:46:00,54.5,54.5,29.93,SSE,166,10.0,17.0,100,0.00,,,0.00,Wunderground v.1.15,2013-01-14 01:46:00,
2013-01-13 20:52:00,54.4,54.4,29.93,SSE,155,10.0,11.0,100,0.00,,,0.00,Wunderground v.1.15,2013-01-14 01:52:00,
2013-01-13 20:59:00,54.4,54.4,29.93,SSE,160,10.0,12.0,100,0.00,,,0.00,Wunderground v.1.15,2013-01-14 01:59:00,
2013-01-13 21:04:00,54.4,54.4,29.93,SSE,152,9.0,13.0,100,0.00,,,0.00,Wunderground v.1.15,2013-01-14 02:04:00,
2013-01-13 21:10:00,54.3,54.3,29.93,SSW,207,10.0,10.0,100,0.00,,,0.00,Wunderground v.1.15,2013-01-14 02:10:00,
2013-01-13 21:18:00,54.2,54.2,29.93,South,177,10.0,11.0,100,0.00,,,0.00,Wunderground v.1.15,2013-01-14 02:18:00,
2013-01-13 21:24:00,54.2,54.2,29.93,South,177,8.0,10.0,100,0.00,,,0.00,Wunderground v.1.15,2013-01-14 02:24:00,
2013-01-13 21:33:00,54.2,54.2,29.93,SSW,203,7.0,9.0,100,0.00,,,0.00,Wunderground v.1.15,2013-01-14 02:33:00,
2013-01-13 21:41:00,54.3,54.3,29.94,SE,134,8.0,8.0,100,0.00,,,0.00,Wunderground v.1.15,2013-01-14 02:41:00,
2013-01-13 21:46:00,54.5,54.5,29.93,East,80,9.0,13.0,100,0.00,,,0.00,Wunderground v.1.15,2013-01-14 02:46:00,
2013-01-13 22:06:00,54.5,54.5,29.93,South,181,6.0,9.0,100,0.00,,,0.00,Wunderground v.1.15,2013-01-14 03:06:00,
2013-01-13 22:12:00,54.5,54.5,29.93,SSW,207,7.0,10.0,100,0.00,,,0.00,Wunderground v.1.15,2013-01-14 03:12:00,
2013-01-13 22:20:00,54.3,54.3,29.93,SSE,150,6.0,6.0,100,0.00,,,0.00,Wunderground v.1.15,2013-01-14 03:20:00,
2013-01-13 22:27:00,54.5,54.5,29.94,SSW,197,6.0,11.0,100,0.00,,,0.00,Wunderground v.1.15,2013-01-14 03:27:00,
2013-01-13 22:38:00,54.4,54.1,29.94,SSE,164,7.0,9.0,99,0.00,,,0.00,Wunderground v.1.15,2013-01-14 03:38:00,
2013-01-13 22:44:00,54.3,54.0,29.94,SE,134,6.0,9.0,99,0.00,,,0.00,Wunderground v.1.15,2013-01-14 03:44:00,
2013-01-13 22:50:00,54.2,54.2,29.93,SSE,156,5.0,9.0,100,0.00,,,0.00,Wunderground v.1.15,2013-01-14 03:50:00,
2013-01-13 22:56:00,54.0,54.0,29.93,South,183,5.0,9.0,100,0.00,,,0.00,Wunderground v.1.15,2013-01-14 03:56:00,
2013-01-13 23:02:00,53.9,53.9,29.93,South,173,5.0,10.0,100,0.00,,,0.00,Wunderground v.1.15,2013-01-14 04:02:00,
2013-01-13 23:08:00,53.9,53.9,29.93,West,264,6.0,10.0,100,0.00,,,0.00,Wunderground v.1.15,2013-01-14 04:08:00,
2013-01-13 23:14:00,54.1,54.1,29.93,South,172,6.0,9.0,100,0.00,,,0.00,Wunderground v.1.15,2013-01-14 04:14:00,
2013-01-13 23:20:00,54.1,54.1,29.93,WSW,240,6.0,9.0,100,0.00,,,0.00,Wunderground v.1.15,2013-01-14 04:20:00,
2013-01-13 23:26:00,54.0,54.0,29.93,South,191,7.0,9.0,100,0.00,,,0.00,Wunderground v.1.15,2013-01-14 04:26:00,
2013-01-13 23:32:00,54.0,54.0,29.93,SSE,155,6.0,10.0,100,0.00,,,0.00,Wunderground v.1.15,2013-01-14 04:32:00,
2013-01-13 23:38:00,53.9,53.9,29.93,SSE,167,6.0,10.0,100,0.00,,,0.00,Wunderground v.1.15,2013-01-14 04:38:00,
2013-01-13 23:44:00,53.9,53.9,29.94,WSW,242,5.0,9.0,100,0.00,,,0.00,Wunderground v.1.15,2013-01-14 04:44:00,
2013-01-13 23:50:00,53.9,53.9,29.95,West,260,5.0,5.0,100,0.00,,,0.00,Wunderground v.1.15,2013-01-14 04:50:00,
2013-01-13 23:56:00,53.9,53.9,29.94,South,169,6.0,9.0,100,0.00,,,0.00,Wunderground v.1.15,2013-01-14 04:56:00,